sensor_id;sensor_type;location;lat;lon;timestamp;temperature;humidity
53314;DHT22;39202;51.468;7.146;2023-02-21T00:03:15;22.30;43.90
53314;DHT22;39202;51.468;7.146;2023-02-21T00:08:35;22.30;44.00
53314;DHT22;39202;51.468;7.146;2023-02-21T00:13:54;22.30;44.00
53314;DHT22;39202;51.468;7.146;2023-02-21T00:19:14;22.30;44.00
53314;DHT22;39202;51.468;7.146;2023-02-21T00:24:34;22.20;43.90
53314;DHT22;39202;51.468;7.146;2023-02-21T00:29:53;22.20;43.90
53314;DHT22;39202;51.468;7.146;2023-02-21T00:35:14;22.20;43.90
53314;DHT22;39202;51.468;7.146;2023-02-21T00:40:33;22.20;43.90
53314;DHT22;39202;51.468;7.146;2023-02-21T00:45:52;22.20;43.90
53314;DHT22;39202;51.468;7.146;2023-02-21T00:51:13;22.20;43.90
53314;DHT22;39202;51.468;7.146;2023-02-21T00:56:33;22.20;43.90
53314;DHT22;39202;51.468;7.146;2023-02-21T01:01:52;22.20;43.90
53314;DHT22;39202;51.468;7.146;2023-02-21T01:07:12;22.20;43.90
53314;DHT22;39202;51.468;7.146;2023-02-21T01:12:31;22.10;43.90
53314;DHT22;39202;51.468;7.146;2023-02-21T01:17:51;22.10;43.90
53314;DHT22;39202;51.468;7.146;2023-02-21T01:23:11;22.10;43.90
53314;DHT22;39202;51.468;7.146;2023-02-21T01:28:31;22.10;43.90
53314;DHT22;39202;51.468;7.146;2023-02-21T01:33:50;22.10;44.00
53314;DHT22;39202;51.468;7.146;2023-02-21T01:39:11;22.10;43.90
53314;DHT22;39202;51.468;7.146;2023-02-21T01:44:34;22.10;44.00
53314;DHT22;39202;51.468;7.146;2023-02-21T01:49:54;22.10;44.00
53314;DHT22;39202;51.468;7.146;2023-02-21T01:55:14;22.10;43.90
53314;DHT22;39202;51.468;7.146;2023-02-21T02:00:34;22.10;44.60
53314;DHT22;39202;51.468;7.146;2023-02-21T02:05:55;22.10;44.00
53314;DHT22;39202;51.468;7.146;2023-02-21T02:11:32;22.10;44.00
53314;DHT22;39202;51.468;7.146;2023-02-21T02:17:00;22.00;43.90
53314;DHT22;39202;51.468;7.146;2023-02-21T02:22:30;22.00;43.90
53314;DHT22;39202;51.468;7.146;2023-02-21T02:28:04;22.00;43.90
53314;DHT22;39202;51.468;7.146;2023-02-21T02:39:14;22.00;43.90
53314;DHT22;39202;51.468;7.146;2023-02-21T02:44:20;22.00;43.90
53314;DHT22;39202;51.468;7.146;2023-02-21T02:49:28;22.00;43.90
53314;DHT22;39202;51.468;7.146;2023-02-21T02:54:31;22.00;43.90
53314;DHT22;39202;51.468;7.146;2023-02-21T02:59:33;22.00;44.40
53314;DHT22;39202;51.468;7.146;2023-02-21T03:04:58;22.00;43.90
53314;DHT22;39202;51.468;7.146;2023-02-21T03:10:13;21.90;43.90
53314;DHT22;39202;51.468;7.146;2023-02-21T03:15:19;21.70;43.80
53314;DHT22;39202;51.468;7.146;2023-02-21T03:20:22;22.00;44.00
53314;DHT22;39202;51.468;7.146;2023-02-21T03:25:27;21.90;43.90
53314;DHT22;39202;51.468;7.146;2023-02-21T03:30:29;21.90;43.90
53314;DHT22;39202;51.468;7.146;2023-02-21T03:35:31;21.90;43.90
53314;DHT22;39202;51.468;7.146;2023-02-21T03:40:35;21.90;43.90
53314;DHT22;39202;51.468;7.146;2023-02-21T03:45:37;21.90;43.90
53314;DHT22;39202;51.468;7.146;2023-02-21T03:50:38;21.90;44.20
53314;DHT22;39202;51.468;7.146;2023-02-21T03:55:41;21.90;44.00
53314;DHT22;39202;51.468;7.146;2023-02-21T04:00:44;21.90;44.00
53314;DHT22;39202;51.468;7.146;2023-02-21T04:05:45;21.90;44.00
53314;DHT22;39202;51.468;7.146;2023-02-21T04:10:48;21.90;44.00
53314;DHT22;39202;51.468;7.146;2023-02-21T04:15:50;21.90;44.00
53314;DHT22;39202;51.468;7.146;2023-02-21T04:20:52;21.90;43.90
53314;DHT22;39202;51.468;7.146;2023-02-21T04:25:55;21.90;43.90
53314;DHT22;39202;51.468;7.146;2023-02-21T04:30:57;21.80;43.90
53314;DHT22;39202;51.468;7.146;2023-02-21T04:35:59;21.80;43.90
53314;DHT22;39202;51.468;7.146;2023-02-21T04:41:02;21.80;43.90
53314;DHT22;39202;51.468;7.146;2023-02-21T04:46:04;21.80;43.90
53314;DHT22;39202;51.468;7.146;2023-02-21T04:51:06;21.80;44.50
53314;DHT22;39202;51.468;7.146;2023-02-21T04:56:09;21.80;44.00
53314;DHT22;39202;51.468;7.146;2023-02-21T05:01:12;21.80;44.00
53314;DHT22;39202;51.468;7.146;2023-02-21T05:06:18;21.80;44.00
53314;DHT22;39202;51.468;7.146;2023-02-21T05:11:22;21.80;44.00
53314;DHT22;39202;51.468;7.146;2023-02-21T05:16:24;21.70;44.10
53314;DHT22;39202;51.468;7.146;2023-02-21T05:21:26;21.80;44.30
53314;DHT22;39202;51.468;7.146;2023-02-21T05:26:32;21.90;45.20
53314;DHT22;39202;51.468;7.146;2023-02-21T05:31:34;21.70;48.20
53314;DHT22;39202;51.468;7.146;2023-02-21T05:36:36;21.70;43.90
53314;DHT22;39202;51.468;7.146;2023-02-21T05:41:45;21.70;43.90
53314;DHT22;39202;51.468;7.146;2023-02-21T05:46:47;21.70;43.90
53314;DHT22;39202;51.468;7.146;2023-02-21T05:51:48;21.70;43.90
53314;DHT22;39202;51.468;7.146;2023-02-21T05:56:52;21.70;43.90
53314;DHT22;39202;51.468;7.146;2023-02-21T06:01:54;21.70;43.90
53314;DHT22;39202;51.468;7.146;2023-02-21T06:06:56;21.70;43.90
53314;DHT22;39202;51.468;7.146;2023-02-21T06:11:59;21.70;43.90
53314;DHT22;39202;51.468;7.146;2023-02-21T06:17:01;21.70;43.90
53314;DHT22;39202;51.468;7.146;2023-02-21T06:22:02;21.70;43.90
53314;DHT22;39202;51.468;7.146;2023-02-21T06:27:05;21.70;43.90
53314;DHT22;39202;51.468;7.146;2023-02-21T06:32:07;21.70;43.90
53314;DHT22;39202;51.468;7.146;2023-02-21T06:37:09;21.70;43.90
53314;DHT22;39202;51.468;7.146;2023-02-21T06:42:13;21.70;43.90
53314;DHT22;39202;51.468;7.146;2023-02-21T06:47:15;21.70;43.90
53314;DHT22;39202;51.468;7.146;2023-02-21T06:52:17;21.70;44.00
53314;DHT22;39202;51.468;7.146;2023-02-21T06:57:20;21.70;44.00
53314;DHT22;39202;51.468;7.146;2023-02-21T07:02:25;21.70;44.00
53314;DHT22;39202;51.468;7.146;2023-02-21T07:07:27;21.70;44.00
53314;DHT22;39202;51.468;7.146;2023-02-21T07:12:30;21.70;44.00
53314;DHT22;39202;51.468;7.146;2023-02-21T07:17:33;21.70;44.00
53314;DHT22;39202;51.468;7.146;2023-02-21T07:22:34;21.70;44.00
53314;DHT22;39202;51.468;7.146;2023-02-21T07:27:38;21.70;44.00
53314;DHT22;39202;51.468;7.146;2023-02-21T07:32:39;21.70;44.10
53314;DHT22;39202;51.468;7.146;2023-02-21T07:37:41;21.70;44.30
53314;DHT22;39202;51.468;7.146;2023-02-21T07:42:44;21.90;44.60
53314;DHT22;39202;51.468;7.146;2023-02-21T07:47:47;21.90;44.70
53314;DHT22;39202;51.468;7.146;2023-02-21T07:52:50;22.00;44.80
53314;DHT22;39202;51.468;7.146;2023-02-21T07:57:53;22.20;44.80
53314;DHT22;39202;51.468;7.146;2023-02-21T08:02:55;22.30;44.80
53314;DHT22;39202;51.468;7.146;2023-02-21T08:07:57;22.40;44.80
53314;DHT22;39202;51.468;7.146;2023-02-21T08:13:00;22.50;44.80
53314;DHT22;39202;51.468;7.146;2023-02-21T08:18:02;22.70;44.90
53314;DHT22;39202;51.468;7.146;2023-02-21T08:23:03;22.70;44.70
53314;DHT22;39202;51.468;7.146;2023-02-21T08:28:06;22.80;44.50
53314;DHT22;39202;51.468;7.146;2023-02-21T08:33:08;22.80;44.50
53314;DHT22;39202;51.468;7.146;2023-02-21T08:38:10;22.90;44.70
53314;DHT22;39202;51.468;7.146;2023-02-21T08:43:13;23.00;44.70
53314;DHT22;39202;51.468;7.146;2023-02-21T08:48:15;23.10;44.80
53314;DHT22;39202;51.468;7.146;2023-02-21T08:53:17;23.10;44.70
53314;DHT22;39202;51.468;7.146;2023-02-21T08:58:20;23.20;44.70
53314;DHT22;39202;51.468;7.146;2023-02-21T09:03:22;23.30;44.70
53314;DHT22;39202;51.468;7.146;2023-02-21T09:08:24;23.40;44.60
53314;DHT22;39202;51.468;7.146;2023-02-21T09:13:29;23.50;44.60
53314;DHT22;39202;51.468;7.146;2023-02-21T09:18:32;23.50;44.60
53314;DHT22;39202;51.468;7.146;2023-02-21T09:23:34;23.60;44.70
53314;DHT22;39202;51.468;7.146;2023-02-21T09:28:37;23.70;44.60
53314;DHT22;39202;51.468;7.146;2023-02-21T09:33:43;23.70;44.60
53314;DHT22;39202;51.468;7.146;2023-02-21T09:38:44;23.80;44.60
53314;DHT22;39202;51.468;7.146;2023-02-21T09:43:50;23.80;44.60
53314;DHT22;39202;51.468;7.146;2023-02-21T09:48:54;23.90;44.70
53314;DHT22;39202;51.468;7.146;2023-02-21T09:53:57;24.00;44.70
53314;DHT22;39202;51.468;7.146;2023-02-21T09:59:00;24.10;44.70
53314;DHT22;39202;51.468;7.146;2023-02-21T10:04:07;24.10;44.70
53314;DHT22;39202;51.468;7.146;2023-02-21T10:09:23;24.10;44.50
53314;DHT22;39202;51.468;7.146;2023-02-21T10:14:35;24.20;44.20
53314;DHT22;39202;51.468;7.146;2023-02-21T10:19:42;24.20;44.10
53314;DHT22;39202;51.468;7.146;2023-02-21T10:24:44;24.20;44.10
53314;DHT22;39202;51.468;7.146;2023-02-21T10:29:51;24.20;44.20
53314;DHT22;39202;51.468;7.146;2023-02-21T10:34:56;24.20;44.20
53314;DHT22;39202;51.468;7.146;2023-02-21T10:40:01;24.20;44.20
53314;DHT22;39202;51.468;7.146;2023-02-21T10:45:08;24.20;44.20
53314;DHT22;39202;51.468;7.146;2023-02-21T10:50:11;24.30;44.30
53314;DHT22;39202;51.468;7.146;2023-02-21T10:55:16;24.30;44.30
53314;DHT22;39202;51.468;7.146;2023-02-21T11:00:26;24.30;44.20
53314;DHT22;39202;51.468;7.146;2023-02-21T11:05:29;24.30;44.20
53314;DHT22;39202;51.468;7.146;2023-02-21T11:10:33;24.30;44.20
53314;DHT22;39202;51.468;7.146;2023-02-21T11:15:36;24.30;44.30
53314;DHT22;39202;51.468;7.146;2023-02-21T11:20:38;24.30;44.30
53314;DHT22;39202;51.468;7.146;2023-02-21T11:25:40;24.30;44.30
53314;DHT22;39202;51.468;7.146;2023-02-21T11:30:48;24.40;44.40
53314;DHT22;39202;51.468;7.146;2023-02-21T11:35:51;24.30;44.40
53314;DHT22;39202;51.468;7.146;2023-02-21T11:46:04;24.60;59.30
53314;DHT22;39202;51.468;7.146;2023-02-21T11:51:17;24.60;47.60
53314;DHT22;39202;51.468;7.146;2023-02-21T11:56:39;24.50;44.40
53314;DHT22;39202;51.468;7.146;2023-02-21T12:01:50;24.50;44.30
53314;DHT22;39202;51.468;7.146;2023-02-21T12:06:59;24.50;44.30
53314;DHT22;39202;51.468;7.146;2023-02-21T12:12:16;24.50;44.30
53314;DHT22;39202;51.468;7.146;2023-02-21T12:17:44;24.50;44.30
53314;DHT22;39202;51.468;7.146;2023-02-21T12:22:57;24.50;44.20
53314;DHT22;39202;51.468;7.146;2023-02-21T12:28:10;24.50;44.10
53314;DHT22;39202;51.468;7.146;2023-02-21T12:33:24;24.50;44.10
53314;DHT22;39202;51.468;7.146;2023-02-21T12:38:34;24.40;44.10
53314;DHT22;39202;51.468;7.146;2023-02-21T12:43:49;24.40;44.10
53314;DHT22;39202;51.468;7.146;2023-02-21T12:48:57;24.40;44.20
53314;DHT22;39202;51.468;7.146;2023-02-21T12:54:02;24.40;44.20
53314;DHT22;39202;51.468;7.146;2023-02-21T12:59:12;24.40;44.30
53314;DHT22;39202;51.468;7.146;2023-02-21T13:10:02;24.40;44.00
53314;DHT22;39202;51.468;7.146;2023-02-21T13:15:16;24.50;44.30
53314;DHT22;39202;51.468;7.146;2023-02-21T13:20:20;24.50;44.60
53314;DHT22;39202;51.468;7.146;2023-02-21T13:37:21;24.90;44.80
53314;DHT22;39202;51.468;7.146;2023-02-21T13:42:25;24.60;44.60
53314;DHT22;39202;51.468;7.146;2023-02-21T13:53:23;24.70;44.60
53314;DHT22;39202;51.468;7.146;2023-02-21T13:58:35;24.80;44.60
53314;DHT22;39202;51.468;7.146;2023-02-21T14:03:37;24.70;45.10
53314;DHT22;39202;51.468;7.146;2023-02-21T14:08:41;24.70;44.40
53314;DHT22;39202;51.468;7.146;2023-02-21T14:13:48;24.70;44.50
53314;DHT22;39202;51.468;7.146;2023-02-21T14:18:53;24.70;44.50
53314;DHT22;39202;51.468;7.146;2023-02-21T14:23:59;24.70;44.50
53314;DHT22;39202;51.468;7.146;2023-02-21T14:29:27;24.80;44.50
53314;DHT22;39202;51.468;7.146;2023-02-21T14:34:32;24.80;44.50
53314;DHT22;39202;51.468;7.146;2023-02-21T14:39:42;24.80;44.50
53314;DHT22;39202;51.468;7.146;2023-02-21T14:44:55;24.80;44.50
53314;DHT22;39202;51.468;7.146;2023-02-21T14:50:16;24.70;44.50
53314;DHT22;39202;51.468;7.146;2023-02-21T14:55:43;24.70;44.40
53314;DHT22;39202;51.468;7.146;2023-02-21T15:01:01;24.70;44.50
53314;DHT22;39202;51.468;7.146;2023-02-21T15:06:08;24.70;44.50
53314;DHT22;39202;51.468;7.146;2023-02-21T15:11:22;24.70;44.50
53314;DHT22;39202;51.468;7.146;2023-02-21T15:16:24;24.70;44.90
53314;DHT22;39202;51.468;7.146;2023-02-21T15:21:26;24.60;44.20
53314;DHT22;39202;51.468;7.146;2023-02-21T15:26:30;24.50;44.20
53314;DHT22;39202;51.468;7.146;2023-02-21T15:31:35;24.50;44.30
53314;DHT22;39202;51.468;7.146;2023-02-21T15:36:37;24.50;44.40
53314;DHT22;39202;51.468;7.146;2023-02-21T15:41:43;24.50;44.50
53314;DHT22;39202;51.468;7.146;2023-02-21T15:46:49;24.50;44.50
53314;DHT22;39202;51.468;7.146;2023-02-21T15:51:52;24.50;44.50
53314;DHT22;39202;51.468;7.146;2023-02-21T15:57:21;24.50;44.50
53314;DHT22;39202;51.468;7.146;2023-02-21T16:02:23;24.50;44.60
53314;DHT22;39202;51.468;7.146;2023-02-21T16:07:29;24.50;44.60
53314;DHT22;39202;51.468;7.146;2023-02-21T16:12:37;24.50;44.70
53314;DHT22;39202;51.468;7.146;2023-02-21T16:17:41;24.50;44.70
53314;DHT22;39202;51.468;7.146;2023-02-21T16:22:45;24.50;44.70
53314;DHT22;39202;51.468;7.146;2023-02-21T16:27:51;24.50;44.80
53314;DHT22;39202;51.468;7.146;2023-02-21T16:32:58;24.50;44.80
53314;DHT22;39202;51.468;7.146;2023-02-21T16:38:00;24.50;44.70
53314;DHT22;39202;51.468;7.146;2023-02-21T16:43:03;24.50;44.60
53314;DHT22;39202;51.468;7.146;2023-02-21T16:48:06;24.60;44.60
53314;DHT22;39202;51.468;7.146;2023-02-21T16:53:10;24.50;44.50
53314;DHT22;39202;51.468;7.146;2023-02-21T16:58:20;24.50;44.50
53314;DHT22;39202;51.468;7.146;2023-02-21T17:03:25;24.50;44.50
53314;DHT22;39202;51.468;7.146;2023-02-21T17:08:35;24.50;44.50
53314;DHT22;39202;51.468;7.146;2023-02-21T17:13:37;24.40;44.50
53314;DHT22;39202;51.468;7.146;2023-02-21T17:18:39;24.40;44.40
53314;DHT22;39202;51.468;7.146;2023-02-21T17:23:42;24.40;44.30
53314;DHT22;39202;51.468;7.146;2023-02-21T17:28:43;24.40;44.20
53314;DHT22;39202;51.468;7.146;2023-02-21T17:33:45;24.30;44.20
53314;DHT22;39202;51.468;7.146;2023-02-21T17:38:48;24.30;44.30
53314;DHT22;39202;51.468;7.146;2023-02-21T17:43:50;24.20;44.20
53314;DHT22;39202;51.468;7.146;2023-02-21T17:48:52;24.20;44.30
53314;DHT22;39202;51.468;7.146;2023-02-21T17:53:55;24.10;44.20
53314;DHT22;39202;51.468;7.146;2023-02-21T17:58:57;24.10;44.30
53314;DHT22;39202;51.468;7.146;2023-02-21T18:03:59;24.10;44.30
53314;DHT22;39202;51.468;7.146;2023-02-21T18:09:03;24.00;44.30
53314;DHT22;39202;51.468;7.146;2023-02-21T18:14:05;24.00;44.30
53314;DHT22;39202;51.468;7.146;2023-02-21T18:19:07;24.00;44.30
53314;DHT22;39202;51.468;7.146;2023-02-21T18:24:11;24.00;44.30
53314;DHT22;39202;51.468;7.146;2023-02-21T18:29:13;23.90;44.30
53314;DHT22;39202;51.468;7.146;2023-02-21T18:34:15;23.90;44.30
53314;DHT22;39202;51.468;7.146;2023-02-21T18:39:20;23.90;44.30
53314;DHT22;39202;51.468;7.146;2023-02-21T18:44:22;23.80;44.20
53314;DHT22;39202;51.468;7.146;2023-02-21T18:49:25;23.90;44.30
53314;DHT22;39202;51.468;7.146;2023-02-21T18:54:28;23.80;44.30
53314;DHT22;39202;51.468;7.146;2023-02-21T18:59:29;23.80;44.30
53314;DHT22;39202;51.468;7.146;2023-02-21T19:04:31;23.80;44.40
53314;DHT22;39202;51.468;7.146;2023-02-21T19:09:35;23.70;44.30
53314;DHT22;39202;51.468;7.146;2023-02-21T19:14:37;23.70;44.30
53314;DHT22;39202;51.468;7.146;2023-02-21T19:19:38;23.70;44.30
53314;DHT22;39202;51.468;7.146;2023-02-21T19:24:41;23.60;44.30
53314;DHT22;39202;51.468;7.146;2023-02-21T19:29:43;23.60;44.30
53314;DHT22;39202;51.468;7.146;2023-02-21T19:34:46;23.60;44.40
53314;DHT22;39202;51.468;7.146;2023-02-21T19:39:49;23.50;44.40
53314;DHT22;39202;51.468;7.146;2023-02-21T19:44:50;23.50;44.40
53314;DHT22;39202;51.468;7.146;2023-02-21T19:49:52;23.50;44.40
53314;DHT22;39202;51.468;7.146;2023-02-21T19:54:55;23.50;44.40
53314;DHT22;39202;51.468;7.146;2023-02-21T19:59:57;23.40;44.40
53314;DHT22;39202;51.468;7.146;2023-02-21T20:04:59;23.40;44.40
53314;DHT22;39202;51.468;7.146;2023-02-21T20:10:02;23.40;44.40
53314;DHT22;39202;51.468;7.146;2023-02-21T20:15:05;23.40;44.40
53314;DHT22;39202;51.468;7.146;2023-02-21T20:20:10;23.40;44.40
53314;DHT22;39202;51.468;7.146;2023-02-21T20:25:13;23.30;44.40
53314;DHT22;39202;51.468;7.146;2023-02-21T20:30:15;23.30;44.40
53314;DHT22;39202;51.468;7.146;2023-02-21T20:35:17;23.30;44.40
53314;DHT22;39202;51.468;7.146;2023-02-21T20:40:20;23.30;44.40
53314;DHT22;39202;51.468;7.146;2023-02-21T20:45:22;23.30;44.40
53314;DHT22;39202;51.468;7.146;2023-02-21T20:50:24;23.30;44.40
53314;DHT22;39202;51.468;7.146;2023-02-21T20:55:27;23.30;44.40
53314;DHT22;39202;51.468;7.146;2023-02-21T21:00:29;23.30;44.40
53314;DHT22;39202;51.468;7.146;2023-02-21T21:05:31;23.20;44.40
53314;DHT22;39202;51.468;7.146;2023-02-21T21:10:34;23.20;44.40
53314;DHT22;39202;51.468;7.146;2023-02-21T21:15:36;23.20;44.40
53314;DHT22;39202;51.468;7.146;2023-02-21T21:20:38;23.20;44.40
53314;DHT22;39202;51.468;7.146;2023-02-21T21:25:42;23.20;44.40
53314;DHT22;39202;51.468;7.146;2023-02-21T21:30:43;23.20;44.50
53314;DHT22;39202;51.468;7.146;2023-02-21T21:35:46;23.10;44.40
53314;DHT22;39202;51.468;7.146;2023-02-21T21:40:49;23.10;44.40
53314;DHT22;39202;51.468;7.146;2023-02-21T21:45:52;23.10;44.50
53314;DHT22;39202;51.468;7.146;2023-02-21T21:50:54;23.10;44.50
53314;DHT22;39202;51.468;7.146;2023-02-21T21:55:58;23.10;44.50
53314;DHT22;39202;51.468;7.146;2023-02-21T22:01:04;23.00;44.40
53314;DHT22;39202;51.468;7.146;2023-02-21T22:06:06;23.00;44.40
53314;DHT22;39202;51.468;7.146;2023-02-21T22:11:11;23.00;44.40
53314;DHT22;39202;51.468;7.146;2023-02-21T22:16:13;23.00;44.40
53314;DHT22;39202;51.468;7.146;2023-02-21T22:21:15;23.00;44.40
53314;DHT22;39202;51.468;7.146;2023-02-21T22:26:19;23.00;44.50
53314;DHT22;39202;51.468;7.146;2023-02-21T22:31:21;23.00;44.50
53314;DHT22;39202;51.468;7.146;2023-02-21T22:36:23;22.90;44.40
53314;DHT22;39202;51.468;7.146;2023-02-21T22:41:28;22.90;44.40
53314;DHT22;39202;51.468;7.146;2023-02-21T22:46:37;22.90;44.40
53314;DHT22;39202;51.468;7.146;2023-02-21T22:51:40;22.90;44.40
53314;DHT22;39202;51.468;7.146;2023-02-21T22:56:44;22.90;44.40
53314;DHT22;39202;51.468;7.146;2023-02-21T23:01:51;22.90;44.50
53314;DHT22;39202;51.468;7.146;2023-02-21T23:06:53;22.90;44.40
53314;DHT22;39202;51.468;7.146;2023-02-21T23:11:58;22.80;44.40
53314;DHT22;39202;51.468;7.146;2023-02-21T23:17:01;22.80;45.00
53314;DHT22;39202;51.468;7.146;2023-02-21T23:22:02;22.80;44.40
53314;DHT22;39202;51.468;7.146;2023-02-21T23:27:06;22.80;44.40
53314;DHT22;39202;51.468;7.146;2023-02-21T23:32:08;22.80;44.70
53314;DHT22;39202;51.468;7.146;2023-02-21T23:37:10;22.80;44.40
53314;DHT22;39202;51.468;7.146;2023-02-21T23:42:13;22.80;44.40
53314;DHT22;39202;51.468;7.146;2023-02-21T23:47:16;22.80;44.50
53314;DHT22;39202;51.468;7.146;2023-02-21T23:52:19;22.80;44.50
53314;DHT22;39202;51.468;7.146;2023-02-21T23:57:23;22.70;44.40
